createdAt,value
2022-12-15T00:02:23.892Z,18.02
2022-12-15T00:05:09.740Z,18.00
2022-12-15T00:07:55.110Z,17.48
2022-12-15T00:10:40.719Z,17.27
2022-12-15T00:13:31.869Z,19.08
2022-12-15T00:16:17.925Z,20.30
2022-12-15T00:19:03.573Z,18.15
2022-12-15T00:21:49.396Z,19.00
2022-12-15T00:24:34.884Z,18.90
2022-12-15T00:27:20.291Z,17.48
2022-12-15T00:30:05.732Z,18.08
2022-12-15T00:32:50.983Z,18.17
2022-12-15T00:35:37.014Z,17.95
2022-12-15T00:38:27.504Z,17.38
2022-12-15T00:40:59.221Z,17.90
2022-12-15T00:43:33.588Z,18.50
2022-12-15T00:46:21.058Z,18.77
2022-12-15T00:48:48.521Z,18.38
2022-12-15T00:51:16.078Z,19.85
2022-12-15T00:54:02.598Z,18.77
2022-12-15T00:56:48.794Z,18.58
2022-12-15T00:59:35.453Z,17.95
2022-12-15T01:02:22.108Z,19.85
2022-12-15T01:05:07.704Z,18.02
2022-12-15T01:07:52.936Z,18.73
2022-12-15T01:10:38.606Z,19.08
2022-12-15T01:13:24.412Z,18.95
2022-12-15T01:16:10.720Z,19.13
2022-12-15T01:18:56.173Z,18.67
2022-12-15T01:21:25.552Z,18.92
2022-12-15T01:23:52.972Z,19.45
2022-12-15T01:26:20.001Z,19.45
2022-12-15T01:28:46.918Z,18.70
2022-12-15T01:31:14.136Z,19.45
2022-12-15T01:33:42.950Z,20.77
2022-12-15T01:36:10.050Z,19.63
2022-12-15T01:38:37.160Z,19.60
2022-12-15T01:41:06.995Z,19.38
2022-12-15T01:43:36.265Z,19.60
2022-12-15T01:46:06.833Z,19.00
2022-12-15T01:48:49.641Z,18.70
2022-12-15T01:51:25.088Z,19.40
2022-12-15T01:53:57.775Z,19.63
2022-12-15T01:56:29.139Z,18.88
2022-12-15T01:59:01.226Z,20.85
2022-12-15T02:01:28.960Z,21.65
2022-12-15T02:03:56.450Z,21.45
2022-12-15T02:06:25.726Z,21.25
2022-12-15T02:08:53.762Z,20.58
2022-12-15T02:11:42.755Z,20.17
2022-12-15T02:14:11.536Z,19.40
2022-12-15T02:17:03.416Z,20.00
2022-12-15T02:19:33.220Z,19.75
2022-12-15T02:22:18.353Z,20.17
2022-12-15T02:25:30.045Z,19.67
2022-12-15T02:28:02.000Z,19.50
2022-12-15T02:30:45.489Z,20.02
2022-12-15T02:33:21.166Z,20.80
2022-12-15T02:35:59.756Z,20.27
2022-12-15T02:38:34.927Z,20.35
2022-12-15T02:41:03.243Z,20.73
2022-12-15T02:43:34.537Z,19.40
2022-12-15T02:46:20.275Z,19.83
2022-12-15T02:49:37.383Z,21.67
2022-12-15T02:52:27.201Z,20.48
2022-12-15T02:55:06.447Z,20.23
2022-12-15T02:57:47.137Z,19.83
2022-12-15T03:00:15.949Z,20.27
2022-12-15T03:02:46.280Z,19.45
2022-12-15T03:05:14.609Z,20.98
2022-12-15T03:07:43.068Z,20.60
2022-12-15T03:10:12.691Z,21.05
2022-12-15T03:12:40.199Z,21.58
2022-12-15T03:15:07.567Z,21.10
2022-12-15T03:17:35.521Z,20.27
2022-12-15T03:20:02.633Z,21.35
2022-12-15T03:22:29.970Z,20.90
2022-12-15T03:24:59.571Z,21.90
2022-12-15T03:27:26.563Z,20.42
2022-12-15T03:29:53.790Z,22.05
2022-12-15T03:32:20.548Z,21.10
2022-12-15T03:34:47.536Z,22.27
2022-12-15T03:37:14.366Z,19.40
2022-12-15T03:39:41.500Z,21.02
2022-12-15T03:42:08.623Z,21.05
2022-12-15T03:44:35.966Z,21.58
2022-12-15T03:47:03.734Z,22.10
2022-12-15T03:49:31.007Z,19.92
2022-12-15T03:51:57.765Z,20.48
2022-12-15T03:54:24.961Z,20.30
2022-12-15T03:56:52.803Z,20.08
2022-12-15T03:59:19.541Z,20.98
2022-12-15T04:01:49.511Z,20.25
2022-12-15T04:04:16.643Z,19.85
2022-12-15T04:06:43.413Z,20.60
2022-12-15T04:09:10.363Z,19.65
2022-12-15T04:11:37.251Z,19.33
2022-12-15T04:14:04.080Z,20.33
2022-12-15T04:16:31.223Z,20.20
2022-12-15T04:19:16.729Z,20.88
2022-12-15T04:21:43.528Z,20.50
2022-12-15T04:24:28.950Z,20.75
2022-12-15T04:27:14.499Z,20.55
2022-12-15T04:29:59.885Z,19.42
2022-12-15T04:32:45.359Z,19.65
2022-12-15T04:35:35.464Z,20.52
2022-12-15T04:38:20.928Z,20.95
2022-12-15T04:41:06.436Z,19.75
2022-12-15T04:43:51.802Z,20.40
2022-12-15T04:46:37.220Z,19.23
2022-12-15T04:49:22.660Z,22.15
2022-12-15T04:52:08.183Z,21.13
2022-12-15T04:54:53.431Z,20.40
2022-12-15T04:57:39.120Z,19.20
2022-12-15T05:00:25.066Z,21.50
2022-12-15T05:03:16.541Z,19.75
2022-12-15T05:06:03.591Z,20.33
2022-12-15T05:08:50.045Z,20.50
2022-12-15T05:11:36.220Z,20.20
2022-12-15T05:14:22.000Z,19.52
2022-12-15T05:17:07.827Z,19.13
2022-12-15T05:19:53.765Z,19.33
2022-12-15T05:22:39.809Z,20.52
2022-12-15T05:25:25.664Z,20.00
2022-12-15T05:28:11.313Z,20.38
2022-12-15T05:30:57.432Z,20.73
2022-12-15T05:33:24.686Z,20.75
2022-12-15T05:35:51.611Z,19.90
2022-12-15T05:38:18.746Z,19.38
2022-12-15T05:40:45.438Z,20.35
2022-12-15T05:43:12.830Z,18.92
2022-12-15T05:45:39.715Z,19.52
2022-12-15T05:48:06.787Z,18.80
2022-12-15T05:50:33.636Z,20.00
2022-12-15T05:53:00.493Z,21.08
2022-12-15T05:55:27.774Z,20.40
2022-12-15T05:57:54.872Z,21.20
2022-12-15T06:00:21.755Z,20.05
2022-12-15T06:02:50.047Z,20.02
2022-12-15T06:05:17.810Z,20.00
2022-12-15T06:07:44.582Z,19.48
2022-12-15T06:10:11.869Z,21.60
2022-12-15T06:12:38.870Z,20.50
2022-12-15T06:15:06.389Z,20.33
2022-12-15T06:17:33.291Z,19.85
2022-12-15T06:20:00.145Z,21.00
2022-12-15T06:22:28.745Z,19.52
2022-12-15T06:24:55.672Z,20.27
2022-12-15T06:27:22.600Z,21.67
2022-12-15T06:29:49.673Z,19.80
2022-12-15T06:32:16.597Z,21.60
2022-12-15T06:34:43.342Z,19.88
2022-12-15T06:37:10.391Z,20.38
2022-12-15T06:39:37.147Z,21.33
2022-12-15T06:42:04.114Z,19.65
2022-12-15T06:44:31.303Z,20.15
2022-12-15T06:46:58.395Z,19.70
2022-12-15T06:49:25.183Z,20.27
2022-12-15T06:51:52.151Z,19.63
2022-12-15T06:54:25.120Z,20.02
2022-12-15T06:56:51.987Z,19.95
2022-12-15T06:59:18.989Z,18.88
2022-12-15T07:01:48.015Z,19.63
2022-12-15T07:04:15.247Z,18.83
2022-12-15T07:06:42.512Z,19.98
2022-12-15T07:09:13.922Z,19.23
2022-12-15T07:11:40.878Z,18.75
2022-12-15T07:14:07.656Z,19.85
2022-12-15T07:16:35.188Z,19.00
2022-12-15T07:19:03.850Z,20.25
2022-12-15T07:21:31.035Z,18.58
2022-12-15T07:23:58.683Z,19.13
2022-12-15T07:26:26.551Z,18.45
2022-12-15T07:28:55.499Z,19.13
2022-12-15T07:31:23.278Z,18.80
2022-12-15T07:33:52.263Z,18.73
2022-12-15T07:36:20.227Z,19.75
2022-12-15T07:38:50.101Z,19.92
2022-12-15T07:41:18.787Z,20.60
2022-12-15T07:43:47.237Z,17.77
2022-12-15T07:46:14.295Z,18.67
2022-12-15T07:48:41.276Z,18.95
2022-12-15T07:51:17.167Z,20.55
2022-12-15T07:53:50.237Z,19.65
2022-12-15T07:56:18.536Z,19.77
2022-12-15T07:58:45.360Z,19.90
2022-12-15T08:01:13.549Z,19.98
2022-12-15T08:03:41.437Z,18.17
2022-12-15T08:06:11.325Z,18.60
2022-12-15T08:08:38.879Z,18.80
2022-12-15T08:11:11.012Z,18.90
2022-12-15T08:16:26.726Z,18.95
2022-12-15T08:18:53.912Z,20.05
2022-12-15T08:21:21.184Z,19.27
2022-12-15T08:23:48.228Z,19.77
2022-12-15T08:26:16.708Z,18.52
2022-12-15T08:28:44.157Z,17.90
2022-12-15T08:31:17.089Z,18.45
2022-12-15T08:33:45.225Z,18.05
2022-12-15T08:36:14.004Z,18.42
2022-12-15T08:38:43.243Z,19.35
2022-12-15T08:41:25.939Z,18.88
2022-12-15T08:43:53.782Z,18.15
2022-12-15T08:46:25.931Z,18.55
2022-12-15T08:48:53.217Z,18.60
2022-12-15T08:51:21.777Z,18.77
2022-12-15T08:53:49.399Z,18.42
2022-12-15T08:56:19.107Z,18.75
2022-12-15T08:58:47.322Z,19.88
2022-12-15T09:01:23.243Z,18.95
2022-12-15T09:03:52.046Z,18.77
2022-12-15T09:06:22.417Z,20.20
2022-12-15T09:08:50.529Z,18.75
2022-12-15T09:11:18.123Z,20.30
2022-12-15T09:13:45.047Z,18.27
2022-12-15T09:16:15.037Z,18.00
2022-12-15T09:18:43.347Z,19.20
2022-12-15T09:21:11.237Z,19.48
2022-12-15T09:23:39.428Z,19.15
2022-12-15T09:26:08.119Z,18.48
2022-12-15T09:28:35.767Z,18.00
2022-12-15T09:31:08.019Z,19.10
2022-12-15T09:33:36.330Z,18.88
2022-12-15T09:36:03.846Z,18.70
2022-12-15T09:38:31.327Z,17.77
2022-12-15T09:40:58.215Z,18.30
2022-12-15T09:43:36.323Z,20.42
2022-12-15T09:46:17.570Z,19.02
2022-12-15T09:48:46.374Z,19.80
2022-12-15T09:51:17.293Z,20.08
2022-12-15T09:53:54.560Z,19.98
2022-12-15T09:56:28.689Z,18.88
2022-12-15T09:58:58.640Z,20.45
2022-12-15T10:01:37.905Z,20.58
2022-12-15T10:04:16.847Z,20.13
2022-12-15T10:06:51.457Z,19.33
2022-12-15T10:09:29.865Z,19.52
2022-12-15T10:12:29.832Z,18.90
2022-12-15T10:15:13.401Z,20.48
2022-12-15T10:17:56.596Z,19.08
2022-12-15T10:20:26.415Z,20.33
2022-12-15T10:22:53.912Z,20.13
2022-12-15T10:25:29.682Z,20.52
2022-12-15T10:28:18.654Z,19.83
2022-12-15T10:30:59.418Z,21.38
2022-12-15T10:33:32.939Z,20.60
2022-12-15T10:36:00.362Z,20.08
2022-12-15T10:38:27.318Z,20.80
2022-12-15T10:41:00.809Z,20.35
2022-12-15T10:43:39.002Z,20.35
2022-12-15T10:46:10.607Z,19.33
2022-12-15T10:48:39.444Z,19.90
2022-12-15T10:51:17.409Z,20.45
2022-12-15T10:53:54.344Z,20.83
2022-12-15T10:56:32.852Z,21.40
2022-12-15T10:59:22.163Z,20.50
2022-12-15T11:01:50.822Z,20.50
2022-12-15T11:04:29.683Z,20.10
2022-12-15T11:06:59.904Z,19.70
2022-12-15T11:09:35.649Z,20.25
2022-12-15T11:12:22.851Z,20.85
2022-12-15T11:14:51.343Z,20.02
2022-12-15T11:17:23.576Z,20.30
2022-12-15T11:20:04.569Z,19.23
2022-12-15T11:22:35.999Z,18.33
2022-12-15T11:25:25.066Z,19.58
2022-12-15T11:27:56.288Z,17.88
2022-12-15T11:30:26.279Z,19.05
2022-12-15T11:33:07.383Z,19.58
2022-12-15T11:35:47.063Z,18.70
2022-12-15T11:38:44.854Z,18.55
2022-12-15T11:41:33.679Z,18.23
2022-12-15T11:44:27.754Z,18.30
2022-12-15T11:47:32.574Z,16.88
2022-12-15T11:50:08.780Z,18.10
2022-12-15T11:52:51.129Z,18.35
2022-12-15T11:55:31.048Z,16.92
2022-12-15T11:58:17.874Z,17.38
2022-12-15T12:01:33.874Z,17.48
2022-12-15T12:04:26.486Z,17.98
2022-12-15T12:07:02.602Z,18.42
2022-12-15T12:09:48.659Z,18.38
2022-12-15T12:12:32.676Z,18.73
2022-12-15T12:15:25.345Z,17.45
2022-12-15T12:17:54.152Z,17.70
2022-12-15T12:20:28.740Z,17.77
2022-12-15T12:23:05.010Z,18.02
2022-12-15T12:25:39.917Z,17.33
2022-12-15T12:28:18.398Z,19.33
2022-12-15T12:30:50.257Z,16.55
2022-12-15T12:33:38.664Z,18.00
2022-12-15T12:36:14.362Z,18.25
2022-12-15T12:38:50.541Z,17.88
2022-12-15T12:41:33.211Z,18.05
2022-12-15T12:44:04.539Z,16.60
2022-12-15T12:46:34.508Z,17.67
2022-12-15T12:49:26.056Z,17.27
2022-12-15T12:52:05.660Z,17.83
2022-12-15T12:54:40.764Z,16.90
2022-12-15T12:57:14.152Z,16.27
2022-12-15T12:59:49.134Z,16.80
2022-12-15T13:02:22.487Z,17.00
2022-12-15T13:05:05.200Z,18.17
2022-12-15T13:07:40.917Z,17.85
2022-12-15T13:10:09.796Z,17.25
2022-12-15T13:12:55.971Z,16.77
2022-12-15T13:15:42.617Z,16.20
2022-12-15T13:18:12.631Z,16.25
2022-12-15T13:20:40.908Z,16.02
2022-12-15T13:23:19.835Z,15.20
2022-12-15T13:26:07.036Z,14.10
2022-12-15T13:28:39.155Z,13.98
2022-12-15T13:31:15.640Z,14.45
2022-12-15T13:33:55.002Z,14.18
2022-12-15T13:36:40.159Z,13.98
2022-12-15T13:39:13.406Z,13.70
2022-12-15T13:42:15.178Z,12.45
2022-12-15T13:44:45.537Z,12.75
2022-12-15T13:47:22.392Z,13.77
2022-12-15T13:50:11.133Z,13.38
2022-12-15T13:53:17.893Z,13.68
2022-12-15T13:55:40.404Z,12.18
2022-12-15T13:58:15.977Z,12.23
2022-12-15T14:01:30.214Z,11.45
2022-12-15T14:04:06.661Z,14.27
2022-12-15T14:06:47.023Z,14.32
2022-12-15T14:09:34.902Z,13.88
2022-12-15T14:12:03.002Z,13.63
2022-12-15T14:14:34.250Z,13.52
2022-12-15T14:17:03.585Z,15.02
2022-12-15T14:19:40.431Z,15.82
2022-12-15T14:22:23.324Z,15.63
2022-12-15T14:25:01.244Z,14.18
2022-12-15T14:27:30.747Z,15.63
2022-12-15T14:30:16.379Z,14.68
2022-12-15T14:32:46.657Z,15.05
2022-12-15T14:35:15.068Z,15.88
2022-12-15T14:37:44.032Z,14.13
2022-12-15T14:40:24.981Z,14.20
2022-12-15T14:42:55.705Z,14.23
2022-12-15T14:45:28.849Z,14.60
2022-12-15T14:48:39.449Z,13.90
2022-12-15T14:50:49.320Z,13.90
2022-12-15T14:53:23.016Z,13.95
2022-12-15T14:55:55.918Z,13.55
2022-12-15T14:58:32.505Z,16.58
2022-12-15T15:01:01.418Z,16.30
2022-12-15T15:03:41.010Z,15.50
2022-12-15T15:06:11.231Z,15.48
2022-12-15T15:08:51.179Z,14.43
2022-12-15T15:11:27.005Z,14.52
2022-12-15T15:13:57.332Z,14.25
2022-12-15T15:16:24.214Z,15.88
2022-12-15T15:18:52.627Z,13.95
2022-12-15T15:21:25.350Z,14.43
2022-12-15T15:24:13.848Z,16.77
2022-12-15T15:26:46.453Z,14.90
2022-12-15T15:29:41.664Z,15.45
2022-12-15T15:32:17.492Z,14.57
2022-12-15T15:34:56.929Z,14.15
2022-12-15T15:37:25.112Z,14.13
2022-12-15T15:39:53.680Z,16.05
2022-12-15T15:42:20.712Z,15.77
2022-12-15T15:44:47.740Z,15.57
2022-12-15T15:47:25.205Z,15.18
2022-12-15T15:49:57.426Z,16.17
2022-12-15T15:52:24.438Z,16.40
2022-12-15T15:54:52.451Z,16.35
2022-12-15T15:57:21.865Z,17.30
2022-12-15T15:59:48.708Z,17.40
2022-12-15T16:02:15.734Z,17.83
2022-12-15T16:04:44.291Z,18.02
2022-12-15T16:07:25.703Z,19.63
2022-12-15T16:09:55.440Z,19.80
2022-12-15T16:12:27.670Z,19.90
2022-12-15T16:14:55.388Z,20.30
2022-12-15T16:20:02.152Z,20.98
2022-12-15T16:22:29.296Z,21.33
2022-12-15T16:24:57.145Z,21.73
2022-12-15T16:27:24.136Z,20.13
2022-12-15T16:29:51.048Z,20.17
2022-12-15T16:32:19.263Z,19.38
2022-12-15T16:34:46.886Z,19.67
2022-12-15T16:37:39.322Z,17.70
2022-12-15T16:40:19.719Z,17.10
2022-12-15T16:43:00.195Z,18.27
2022-12-15T16:45:31.363Z,18.00
2022-12-15T16:48:01.397Z,20.00
2022-12-15T16:50:34.875Z,20.25
2022-12-15T16:53:07.713Z,18.92
2022-12-15T16:55:39.834Z,19.50
2022-12-15T16:58:07.477Z,19.98
2022-12-15T17:00:35.658Z,18.42
2022-12-15T17:03:04.941Z,18.60
2022-12-15T17:05:51.636Z,19.77
2022-12-15T17:08:51.191Z,17.98
2022-12-15T17:11:23.654Z,17.55
2022-12-15T17:13:51.933Z,16.08
2022-12-15T17:16:21.682Z,16.90
2022-12-15T17:18:57.877Z,15.07
2022-12-15T17:21:26.632Z,16.42
2022-12-15T17:23:58.157Z,16.50
2022-12-15T17:26:38.545Z,16.52
2022-12-15T17:29:14.907Z,16.98
2022-12-15T17:31:42.115Z,17.08
2022-12-15T17:34:35.578Z,17.38
2022-12-15T17:37:08.466Z,16.35
2022-12-15T17:39:38.333Z,16.38
2022-12-15T17:42:31.760Z,16.90
2022-12-15T17:44:58.539Z,16.25
2022-12-15T17:47:25.725Z,17.02
2022-12-15T17:49:52.566Z,16.45
2022-12-15T17:52:27.079Z,16.58
2022-12-15T17:54:54.939Z,17.35
2022-12-15T17:57:26.866Z,16.65
2022-12-15T17:59:53.796Z,16.13
2022-12-15T18:02:21.507Z,16.17
2022-12-15T18:04:50.773Z,16.30
2022-12-15T18:07:29.166Z,16.52
2022-12-15T18:10:00.434Z,16.48
2022-12-15T18:12:30.217Z,16.65
2022-12-15T18:14:59.295Z,14.98
2022-12-15T18:17:28.758Z,15.85
2022-12-15T18:19:55.913Z,16.88
2022-12-15T18:22:24.716Z,16.77
2022-12-15T18:24:54.165Z,14.65
2022-12-15T18:27:23.728Z,15.40
2022-12-15T18:29:52.409Z,15.95
2022-12-15T18:32:22.389Z,15.63
2022-12-15T18:34:50.747Z,14.77
2022-12-15T18:37:23.215Z,15.85
2022-12-15T18:39:53.422Z,15.55
2022-12-15T18:42:23.172Z,15.88
2022-12-15T18:44:52.254Z,15.20
2022-12-15T18:47:22.086Z,17.77
2022-12-15T18:49:49.521Z,16.17
2022-12-15T18:52:18.416Z,17.70
2022-12-15T18:54:51.062Z,16.85
2022-12-15T18:57:31.736Z,15.90
2022-12-15T19:00:02.129Z,16.40
2022-12-15T19:02:29.136Z,15.55
2022-12-15T19:04:56.220Z,15.95
2022-12-15T19:07:23.059Z,17.13
2022-12-15T19:09:50.887Z,16.33
2022-12-15T19:12:21.427Z,15.85
2022-12-15T19:14:51.483Z,16.35
2022-12-15T19:17:46.012Z,15.70
2022-12-15T19:20:40.088Z,15.40
2022-12-15T19:23:07.421Z,15.00
2022-12-15T19:25:35.309Z,15.32
2022-12-15T19:28:02.199Z,15.25
2022-12-15T19:30:41.979Z,15.70
2022-12-15T19:33:11.289Z,15.55
2022-12-15T19:35:39.155Z,15.90
2022-12-15T19:38:17.931Z,15.93
2022-12-15T19:40:45.184Z,15.88
2022-12-15T19:43:17.050Z,16.40
2022-12-15T19:45:52.890Z,17.38
2022-12-15T19:48:23.768Z,18.25
2022-12-15T19:50:57.084Z,18.63
2022-12-15T19:53:28.550Z,18.33
2022-12-15T19:55:57.955Z,17.88
2022-12-15T19:58:32.618Z,18.50
2022-12-15T20:01:05.777Z,18.65
2022-12-15T20:03:35.583Z,18.05
2022-12-15T20:06:04.348Z,16.98
2022-12-15T20:08:36.853Z,17.20
2022-12-15T20:11:07.528Z,18.30
2022-12-15T20:13:35.447Z,17.10
2022-12-15T20:16:02.824Z,18.67
2022-12-15T20:18:31.747Z,17.58
2022-12-15T20:21:02.230Z,18.60
2022-12-15T20:23:40.738Z,17.58
2022-12-15T20:26:20.787Z,17.38
2022-12-15T20:28:49.322Z,17.55
2022-12-15T20:31:18.525Z,17.33
2022-12-15T20:33:46.562Z,17.70
2022-12-15T20:36:19.812Z,17.10
2022-12-15T20:38:50.739Z,16.67
2022-12-15T20:41:22.404Z,17.17
2022-12-15T20:43:49.852Z,15.63
2022-12-15T20:46:22.736Z,18.25
2022-12-15T20:51:34.158Z,19.33
2022-12-15T20:54:02.741Z,18.45
2022-12-15T20:56:35.717Z,19.17
2022-12-15T20:59:06.951Z,16.90
2022-12-15T21:01:49.350Z,16.52
2022-12-15T21:04:40.956Z,17.67
2022-12-15T21:07:12.338Z,16.83
2022-12-15T21:09:40.320Z,18.42
2022-12-15T21:12:25.806Z,18.02
2022-12-15T21:14:53.516Z,17.98
2022-12-15T21:17:22.358Z,18.08
2022-12-15T21:19:49.283Z,18.05
2022-12-15T21:22:22.092Z,18.80
2022-12-15T21:24:54.070Z,18.42
2022-12-15T21:27:22.320Z,19.45
2022-12-15T21:29:52.605Z,19.67
2022-12-15T21:32:23.162Z,18.73
2022-12-15T21:34:52.028Z,19.73
2022-12-15T21:37:27.165Z,20.48
2022-12-15T21:39:55.173Z,18.92
2022-12-15T21:42:25.222Z,19.08
2022-12-15T21:44:56.928Z,19.05
2022-12-15T21:47:47.510Z,18.83
2022-12-15T21:50:15.362Z,18.50
2022-12-15T21:53:30.488Z,17.90
2022-12-15T21:56:23.412Z,16.48
2022-12-15T21:58:57.532Z,17.90
2022-12-15T22:14:36.123Z,17.95
2022-12-15T22:24:13.418Z,18.52
2022-12-15T22:29:49.567Z,18.05
2022-12-15T22:32:20.801Z,19.40
2022-12-15T22:34:50.864Z,18.02
2022-12-15T22:37:33.515Z,19.60
2022-12-15T22:40:06.473Z,20.02
2022-12-15T22:42:33.814Z,19.15
2022-12-15T22:45:01.563Z,19.45
2022-12-15T22:47:30.421Z,20.08
2022-12-15T22:49:57.265Z,20.48
2022-12-15T22:52:24.120Z,20.70
2022-12-15T22:54:58.380Z,21.38
2022-12-15T22:57:27.295Z,21.25
2022-12-15T23:00:00.777Z,21.48
2022-12-15T23:02:48.245Z,19.75
2022-12-15T23:05:17.568Z,21.33
2022-12-15T23:07:45.314Z,20.90
2022-12-15T23:10:33.926Z,21.58
2022-12-15T23:13:02.081Z,21.75
2022-12-15T23:15:48.370Z,22.77
2022-12-15T23:18:16.285Z,22.42
2022-12-15T23:20:43.698Z,23.33
2022-12-15T23:23:11.273Z,22.83
2022-12-15T23:25:39.344Z,23.48
2022-12-15T23:28:06.753Z,21.48
2022-12-15T23:30:34.200Z,21.10
2022-12-15T23:33:01.209Z,23.40
2022-12-15T23:35:31.336Z,22.75
2022-12-15T23:38:01.434Z,22.65
2022-12-15T23:40:28.429Z,21.73
2022-12-15T23:42:55.377Z,22.33
2022-12-15T23:45:22.560Z,22.08
2022-12-15T23:47:49.381Z,22.90
2022-12-15T23:50:16.897Z,21.92
2022-12-15T23:52:43.946Z,23.02
2022-12-15T23:55:11.890Z,21.83
2022-12-15T23:57:39.795Z,21.10
